createdAt,value
2023-04-10T00:02:25.071Z,13.05
2023-04-10T00:05:14.176Z,10.18
2023-04-10T00:08:03.466Z,11.88
2023-04-10T00:10:53.311Z,11.40
2023-04-10T00:13:43.388Z,9.50
2023-04-10T00:16:32.322Z,10.25
2023-04-10T00:19:21.139Z,12.15
2023-04-10T00:22:10.025Z,12.55
2023-04-10T00:24:58.626Z,10.88
2023-04-10T00:27:47.239Z,14.77
2023-04-10T00:30:37.360Z,11.70
2023-04-10T00:33:26.271Z,15.18
2023-04-10T00:36:15.084Z,12.40
2023-04-10T00:39:04.195Z,13.75
2023-04-10T00:41:52.953Z,13.43
2023-04-10T00:44:41.733Z,13.75
2023-04-10T00:47:32.382Z,12.30
2023-04-10T00:50:22.188Z,14.63
2023-04-10T00:53:11.302Z,16.60
2023-04-10T00:56:01.898Z,15.27
2023-04-10T00:58:51.192Z,17.10
2023-04-10T01:01:40.202Z,16.40
2023-04-10T01:04:31.456Z,15.10
2023-04-10T01:07:28.821Z,16.58
2023-04-10T01:10:25.451Z,16.92
2023-04-10T01:13:23.207Z,14.93
2023-04-10T01:16:20.839Z,15.77
2023-04-10T01:19:24.866Z,15.55
2023-04-10T01:22:17.532Z,17.15
2023-04-10T01:25:32.033Z,19.52
2023-04-10T01:28:53.742Z,17.25
2023-04-10T01:31:47.742Z,15.20
2023-04-10T01:34:41.756Z,19.98
2023-04-10T01:37:33.654Z,17.05
2023-04-10T01:40:23.497Z,16.73
2023-04-10T01:43:14.217Z,17.35
2023-04-10T01:46:11.389Z,18.20
2023-04-10T01:49:03.547Z,17.38
2023-04-10T01:51:54.397Z,19.52
2023-04-10T01:54:45.657Z,16.42
2023-04-10T01:57:37.774Z,16.17
2023-04-10T02:00:26.852Z,15.88
2023-04-10T02:03:17.401Z,15.75
2023-04-10T02:06:16.015Z,15.77
2023-04-10T02:09:12.384Z,13.95
2023-04-10T02:12:06.904Z,16.65
2023-04-10T02:14:58.158Z,15.43
2023-04-10T02:17:47.784Z,13.10
2023-04-10T02:20:38.708Z,14.05
2023-04-10T02:23:27.652Z,15.27
2023-04-10T02:26:17.085Z,14.73
2023-04-10T02:29:05.730Z,12.43
2023-04-10T02:31:57.113Z,14.65
2023-04-10T02:34:46.051Z,14.20
2023-04-10T02:37:37.270Z,14.25
2023-04-10T02:40:26.149Z,12.43
2023-04-10T02:43:30.518Z,15.88
2023-04-10T02:46:19.613Z,15.68
2023-04-10T02:49:08.734Z,14.63
2023-04-10T02:51:57.569Z,14.85
2023-04-10T02:54:47.770Z,12.90
2023-04-10T02:57:36.823Z,14.63
2023-04-10T03:00:26.109Z,15.50
2023-04-10T03:03:41.261Z,13.23
2023-04-10T03:06:30.476Z,15.32
2023-04-10T03:09:20.251Z,13.93
2023-04-10T03:12:10.630Z,12.68
2023-04-10T03:14:59.554Z,13.20
2023-04-10T03:17:48.623Z,13.63
2023-04-10T03:20:38.630Z,12.73
2023-04-10T03:23:27.357Z,12.85
2023-04-10T03:26:16.046Z,14.40
2023-04-10T03:29:06.310Z,14.50
2023-04-10T03:31:56.459Z,14.48
2023-04-10T03:34:46.302Z,12.80
2023-04-10T03:37:36.357Z,14.43
2023-04-10T03:40:25.429Z,12.80
2023-04-10T03:43:14.319Z,12.43
2023-04-10T03:46:04.574Z,14.20
2023-04-10T03:48:54.314Z,12.10
2023-04-10T03:51:43.617Z,14.05
2023-04-10T03:54:32.302Z,12.23
2023-04-10T03:57:21.377Z,12.60
2023-04-10T04:00:13.158Z,14.32
2023-04-10T04:03:13.072Z,14.88
2023-04-10T04:06:11.239Z,15.10
2023-04-10T04:09:04.405Z,14.60
2023-04-10T04:12:17.945Z,15.13
2023-04-10T04:15:38.792Z,12.43
2023-04-10T04:18:40.362Z,12.50
2023-04-10T04:21:52.139Z,13.85
2023-04-10T04:25:02.507Z,12.93
2023-04-10T04:28:07.906Z,13.45
2023-04-10T04:31:19.787Z,13.82
2023-04-10T04:34:29.845Z,12.80
2023-04-10T04:37:37.301Z,10.43
2023-04-10T04:40:44.370Z,13.18
2023-04-10T04:44:08.744Z,10.65
2023-04-10T04:47:26.731Z,12.40
2023-04-10T04:50:19.858Z,14.27
2023-04-10T04:53:44.150Z,11.48
2023-04-10T04:56:51.556Z,11.73
2023-04-10T04:59:51.222Z,10.13
2023-04-10T05:03:00.036Z,11.27
2023-04-10T05:06:00.174Z,13.13
2023-04-10T05:09:14.820Z,11.93
2023-04-10T05:12:08.947Z,10.98
2023-04-10T05:15:18.293Z,10.32
2023-04-10T05:18:33.452Z,12.85
2023-04-10T05:21:35.542Z,11.60
2023-04-10T05:24:28.654Z,13.35
2023-04-10T05:27:34.838Z,15.93
2023-04-10T05:30:29.478Z,11.85
2023-04-10T05:33:53.332Z,12.02
2023-04-10T05:37:13.177Z,11.70
2023-04-10T05:40:28.086Z,11.25
2023-04-10T05:43:39.872Z,12.52
2023-04-10T05:46:34.417Z,10.02
2023-04-10T05:49:43.833Z,12.05
2023-04-10T05:53:03.612Z,12.50
2023-04-10T05:56:13.656Z,10.95
2023-04-10T05:59:02.409Z,11.02
2023-04-10T06:02:17.433Z,9.80
2023-04-10T06:05:07.576Z,10.35
2023-04-10T06:07:58.567Z,10.93
2023-04-10T06:10:49.359Z,11.13
2023-04-10T06:13:38.202Z,13.55
2023-04-10T06:16:26.996Z,11.70
2023-04-10T06:19:16.723Z,15.23
2023-04-10T06:22:05.440Z,13.02
2023-04-10T06:24:54.187Z,12.45
2023-04-10T06:27:45.158Z,12.43
2023-04-10T06:30:34.771Z,11.73
2023-04-10T06:33:25.781Z,15.20
2023-04-10T06:36:15.963Z,14.55
2023-04-10T06:39:10.065Z,12.07
2023-04-10T06:41:59.420Z,12.85
2023-04-10T06:45:05.594Z,12.57
2023-04-10T06:47:54.494Z,15.25
2023-04-10T06:50:43.226Z,13.93
2023-04-10T06:53:32.274Z,13.60
2023-04-10T06:56:21.350Z,13.13
2023-04-10T06:59:10.209Z,14.88
2023-04-10T07:02:00.474Z,15.38
2023-04-10T07:04:50.117Z,13.00
2023-04-10T07:07:38.915Z,11.70
2023-04-10T07:10:27.767Z,12.73
2023-04-10T07:13:16.407Z,12.02
2023-04-10T07:16:05.272Z,10.13
2023-04-10T07:18:55.737Z,12.25
2023-04-10T07:21:45.148Z,11.35
2023-04-10T07:24:34.074Z,12.00
2023-04-10T07:27:23.389Z,14.48
2023-04-10T07:30:13.794Z,11.85
2023-04-10T07:33:02.837Z,13.73
2023-04-10T07:35:53.461Z,12.63
2023-04-10T07:38:43.388Z,11.35
2023-04-10T07:41:32.329Z,10.25
2023-04-10T07:44:21.234Z,10.43
2023-04-10T07:47:10.045Z,13.02
2023-04-10T07:49:58.818Z,11.18
2023-04-10T07:52:49.898Z,10.52
2023-04-10T07:55:41.840Z,11.90
2023-04-10T07:58:31.257Z,11.40
2023-04-10T08:01:19.988Z,11.73
2023-04-10T08:04:09.397Z,13.57
2023-04-10T08:06:58.502Z,11.93
2023-04-10T08:09:48.694Z,11.23
2023-04-10T08:12:38.441Z,11.38
2023-04-10T08:15:27.247Z,11.70
2023-04-10T08:18:15.973Z,10.95
2023-04-10T08:21:04.796Z,9.45
2023-04-10T08:23:54.144Z,13.02
2023-04-10T08:26:44.212Z,9.55
2023-04-10T08:29:33.158Z,8.70
2023-04-10T08:32:21.852Z,9.63
2023-04-10T08:35:11.276Z,9.85
2023-04-10T08:38:12.525Z,7.35
2023-04-10T08:41:02.981Z,7.40
2023-04-10T08:43:53.536Z,9.90
2023-04-10T08:46:44.934Z,10.68
2023-04-10T08:49:41.925Z,7.10
2023-04-10T08:52:32.531Z,7.53
2023-04-10T08:55:21.676Z,7.28
2023-04-10T08:58:11.578Z,6.43
2023-04-10T09:01:02.287Z,7.10
2023-04-10T09:03:51.560Z,7.65
2023-04-10T09:06:40.485Z,8.30
2023-04-10T09:09:32.523Z,6.65
2023-04-10T09:12:21.301Z,8.50
2023-04-10T09:15:10.429Z,9.30
2023-04-10T09:18:02.703Z,7.32
2023-04-10T09:20:51.956Z,7.55
2023-04-10T09:23:40.907Z,9.80
2023-04-10T09:26:31.098Z,7.97
2023-04-10T09:29:20.911Z,9.02
2023-04-10T09:32:09.605Z,6.00
2023-04-10T09:35:00.168Z,6.38
2023-04-10T09:37:48.888Z,7.30
2023-04-10T09:40:37.795Z,6.18
2023-04-10T09:43:28.555Z,9.45
2023-04-10T09:46:28.805Z,6.38
2023-04-10T09:49:18.404Z,9.93
2023-04-10T09:52:20.004Z,5.88
2023-04-10T09:55:09.769Z,5.88
2023-04-10T09:57:59.927Z,4.20
2023-04-10T10:01:13.784Z,5.22
2023-04-10T10:04:04.740Z,7.45
2023-04-10T10:06:53.818Z,5.70
2023-04-10T10:09:44.971Z,7.65
2023-04-10T10:12:41.717Z,5.93
2023-04-10T10:15:38.290Z,4.90
2023-04-10T10:18:33.911Z,6.95
2023-04-10T10:21:23.433Z,7.78
2023-04-10T10:24:14.374Z,4.78
2023-04-10T10:27:10.561Z,4.30
2023-04-10T10:30:08.422Z,5.57
2023-04-10T10:33:01.930Z,5.43
2023-04-10T10:35:51.666Z,4.75
2023-04-10T10:38:44.749Z,8.82
2023-04-10T10:41:41.955Z,6.63
2023-04-10T10:44:40.066Z,4.00
2023-04-10T10:47:31.413Z,9.50
2023-04-10T10:50:22.241Z,3.65
2023-04-10T10:53:35.627Z,11.35
2023-04-10T10:56:37.733Z,5.60
2023-04-10T10:59:58.025Z,5.32
2023-04-10T11:02:46.883Z,7.80
2023-04-10T11:05:51.540Z,7.55
2023-04-10T11:08:46.657Z,5.28
2023-04-10T11:11:59.371Z,5.68
2023-04-10T11:15:00.915Z,4.90
2023-04-10T11:17:52.036Z,5.22
2023-04-10T11:21:11.017Z,5.57
2023-04-10T11:24:06.692Z,7.40
2023-04-10T11:26:56.305Z,4.18
2023-04-10T11:29:45.137Z,4.55
2023-04-10T11:32:43.041Z,7.03
2023-04-10T11:35:32.965Z,5.90
2023-04-10T11:38:21.801Z,6.75
2023-04-10T11:41:10.658Z,6.13
2023-04-10T11:44:00.128Z,6.10
2023-04-10T11:46:51.321Z,5.72
2023-04-10T11:49:41.527Z,6.25
2023-04-10T11:52:30.548Z,4.80
2023-04-10T11:55:20.317Z,5.13
2023-04-10T11:58:26.822Z,4.70
2023-04-10T12:01:15.717Z,3.97
2023-04-10T12:04:05.148Z,4.75
2023-04-10T12:06:58.648Z,4.40
2023-04-10T12:09:47.551Z,6.50
2023-04-10T12:12:37.112Z,7.70
2023-04-10T12:15:29.115Z,7.70
2023-04-10T12:18:18.364Z,5.55
2023-04-10T12:21:08.906Z,4.40
2023-04-10T12:23:59.390Z,5.35
2023-04-10T12:26:50.726Z,4.57
2023-04-10T12:29:39.475Z,8.45
2023-04-10T12:32:28.330Z,4.05
2023-04-10T12:35:20.285Z,4.47
2023-04-10T12:38:09.021Z,5.82
2023-04-10T12:41:02.302Z,4.55
2023-04-10T12:43:51.314Z,5.35
2023-04-10T12:46:41.094Z,5.05
2023-04-10T12:49:29.884Z,3.53
2023-04-10T12:52:24.312Z,6.50
2023-04-10T12:55:15.177Z,4.40
2023-04-10T12:58:20.412Z,5.15
2023-04-10T13:01:10.613Z,7.20
2023-04-10T13:04:00.304Z,5.10
2023-04-10T13:06:52.882Z,5.82
2023-04-10T13:09:41.818Z,4.57
2023-04-10T13:12:30.765Z,3.35
2023-04-10T13:15:24.529Z,5.32
2023-04-10T13:18:13.458Z,4.05
2023-04-10T13:21:02.300Z,4.85
2023-04-10T13:23:50.951Z,4.72
2023-04-10T13:26:39.644Z,3.88
2023-04-10T13:29:29.071Z,6.18
2023-04-10T13:32:19.609Z,4.50
2023-04-10T13:35:09.105Z,3.63
2023-04-10T13:37:57.784Z,4.13
2023-04-10T13:40:46.433Z,3.10
2023-04-10T13:43:35.148Z,3.83
2023-04-10T13:46:23.895Z,5.35
2023-04-10T13:49:17.440Z,5.63
2023-04-10T13:52:06.118Z,8.70
2023-04-10T13:54:54.785Z,4.75
2023-04-10T13:57:43.463Z,5.10
2023-04-10T14:00:32.488Z,7.70
2023-04-10T14:03:21.389Z,4.82
2023-04-10T14:06:11.627Z,6.40
2023-04-10T14:09:01.122Z,4.35
2023-04-10T14:11:49.884Z,7.60
2023-04-10T14:14:38.661Z,7.10
2023-04-10T14:17:28.276Z,5.88
2023-04-10T14:20:17.028Z,6.35
2023-04-10T14:23:07.161Z,6.10
2023-04-10T14:25:55.900Z,6.07
2023-04-10T14:28:44.548Z,7.80
2023-04-10T14:31:33.735Z,8.23
2023-04-10T14:34:24.436Z,11.00
2023-04-10T14:37:15.295Z,7.10
2023-04-10T14:40:07.010Z,6.53
2023-04-10T14:42:55.808Z,7.25
2023-04-10T14:45:44.670Z,8.85
2023-04-10T14:48:33.623Z,6.28
2023-04-10T14:51:22.475Z,7.53
2023-04-10T14:54:11.230Z,6.65
2023-04-10T14:57:02.028Z,6.10
2023-04-10T14:59:50.765Z,6.07
2023-04-10T15:02:39.715Z,4.63
2023-04-10T15:05:32.137Z,5.20
2023-04-10T15:08:20.853Z,7.13
2023-04-10T15:11:09.667Z,5.30
2023-04-10T15:14:00.349Z,6.88
2023-04-10T15:16:50.617Z,5.15
2023-04-10T15:19:40.875Z,6.72
2023-04-10T15:22:30.460Z,4.53
2023-04-10T15:25:19.537Z,4.85
2023-04-10T15:28:09.005Z,3.58
2023-04-10T15:30:59.050Z,6.00
2023-04-10T15:33:47.773Z,5.38
2023-04-10T15:36:36.482Z,4.35
2023-04-10T15:39:25.207Z,5.07
2023-04-10T15:42:16.043Z,5.25
2023-04-10T15:45:05.006Z,5.45
2023-04-10T15:47:55.221Z,5.78
2023-04-10T15:50:44.130Z,6.05
2023-04-10T15:53:33.129Z,5.53
2023-04-10T15:56:21.899Z,5.25
2023-04-10T15:59:10.598Z,6.57
2023-04-10T16:01:59.764Z,4.85
2023-04-10T16:04:50.376Z,8.77
2023-04-10T16:07:41.189Z,5.05
2023-04-10T16:10:30.610Z,8.68
2023-04-10T16:13:20.528Z,6.97
2023-04-10T16:16:14.792Z,6.55
2023-04-10T16:19:03.814Z,7.32
2023-04-10T16:21:54.322Z,5.45
2023-04-10T16:24:43.093Z,5.18
2023-04-10T16:27:32.216Z,4.93
2023-04-10T16:30:21.528Z,5.75
2023-04-10T16:33:10.512Z,5.75
2023-04-10T16:35:59.699Z,9.93
2023-04-10T16:38:50.488Z,5.97
2023-04-10T16:41:39.554Z,8.25
2023-04-10T16:44:29.010Z,5.07
2023-04-10T16:47:17.856Z,6.22
2023-04-10T16:50:08.826Z,5.15
2023-04-10T16:52:57.879Z,4.88
2023-04-10T16:55:48.122Z,4.63
2023-04-10T16:58:37.834Z,5.63
2023-04-10T17:01:29.224Z,4.40
2023-04-10T17:04:19.971Z,6.25
2023-04-10T17:07:08.833Z,7.80
2023-04-10T17:09:57.608Z,8.80
2023-04-10T17:12:47.936Z,3.78
2023-04-10T17:15:37.555Z,5.35
2023-04-10T17:18:28.330Z,6.68
2023-04-10T17:21:17.276Z,6.35
2023-04-10T17:24:06.608Z,6.30
2023-04-10T17:26:57.260Z,5.88
2023-04-10T17:29:47.630Z,5.57
2023-04-10T17:32:36.469Z,6.53
2023-04-10T17:35:25.562Z,6.18
2023-04-10T17:38:14.225Z,7.40
2023-04-10T17:41:04.044Z,7.25
2023-04-10T17:43:53.060Z,7.05
2023-04-10T17:46:43.254Z,9.48
2023-04-10T17:49:32.227Z,5.10
2023-04-10T17:52:20.999Z,7.53
2023-04-10T17:55:10.563Z,5.28
2023-04-10T17:57:59.597Z,7.30
2023-04-10T18:00:48.544Z,6.72
2023-04-10T18:03:38.830Z,6.63
2023-04-10T18:06:28.100Z,10.63
2023-04-10T18:09:17.416Z,6.95
2023-04-10T18:12:06.273Z,7.35
2023-04-10T18:14:54.952Z,7.15
2023-04-10T18:17:43.815Z,8.15
2023-04-10T18:20:34.033Z,7.25
2023-04-10T18:23:25.185Z,11.00
2023-04-10T18:26:14.324Z,9.30
2023-04-10T18:29:03.568Z,10.75
2023-04-10T18:31:52.432Z,9.30
2023-04-10T18:34:41.606Z,10.25
2023-04-10T18:37:32.282Z,8.80
2023-04-10T18:40:22.361Z,9.07
2023-04-10T18:43:11.136Z,10.75
2023-04-10T18:45:59.922Z,10.57
2023-04-10T18:48:50.573Z,11.32
2023-04-10T18:51:40.806Z,11.48
2023-04-10T18:54:32.280Z,18.15
2023-04-10T18:57:21.121Z,15.70
2023-04-10T19:00:12.423Z,11.73
2023-04-10T19:03:01.472Z,11.05
2023-04-10T19:05:50.466Z,12.32
2023-04-10T19:08:39.240Z,13.68
2023-04-10T19:11:30.170Z,13.32
2023-04-10T19:14:19.278Z,11.18
2023-04-10T19:17:08.546Z,12.63
2023-04-10T19:19:58.241Z,13.55
2023-04-10T19:22:47.272Z,13.40
2023-04-10T19:25:36.148Z,16.45
2023-04-10T19:28:27.179Z,12.85
2023-04-10T19:31:16.197Z,12.45
2023-04-10T19:34:09.290Z,17.80
2023-04-10T19:36:58.037Z,16.52
2023-04-10T19:39:46.724Z,11.95
2023-04-10T19:42:35.956Z,13.70
2023-04-10T19:45:28.180Z,12.80
2023-04-10T19:48:17.081Z,17.50
2023-04-10T19:51:06.299Z,15.77
2023-04-10T19:53:56.070Z,15.40
2023-04-10T19:56:45.198Z,16.85
2023-04-10T19:59:34.066Z,17.95
2023-04-10T20:02:24.465Z,20.08
2023-04-10T20:05:13.599Z,21.13
2023-04-10T20:08:02.389Z,16.45
2023-04-10T20:10:51.092Z,19.98
2023-04-10T20:13:41.084Z,16.70
2023-04-10T20:16:30.146Z,21.38
2023-04-10T20:19:20.304Z,21.00
2023-04-10T20:22:09.740Z,18.95
2023-04-10T20:24:58.424Z,23.98
2023-04-10T20:27:47.292Z,19.55
2023-04-10T20:30:38.041Z,19.88
2023-04-10T20:33:27.670Z,19.63
2023-04-10T20:36:17.931Z,20.65
2023-04-10T20:39:07.241Z,20.17
2023-04-10T20:41:57.382Z,18.35
2023-04-10T20:44:46.368Z,18.45
2023-04-10T20:47:35.342Z,21.30
2023-04-10T20:50:24.126Z,22.73
2023-04-10T20:53:14.494Z,22.13
2023-04-10T20:56:06.033Z,23.27
2023-04-10T20:58:55.466Z,21.75
2023-04-10T21:01:44.731Z,24.05
2023-04-10T21:04:34.025Z,26.83
2023-04-10T21:07:22.876Z,27.58
2023-04-10T21:10:13.162Z,22.08
2023-04-10T21:13:03.590Z,22.85
2023-04-10T21:15:52.426Z,30.83
2023-04-10T21:18:41.253Z,26.70
2023-04-10T21:21:31.225Z,24.30
2023-04-10T21:24:20.148Z,25.65
2023-04-10T21:27:10.387Z,23.05
2023-04-10T21:29:59.463Z,24.67
2023-04-10T21:32:48.224Z,24.25
2023-04-10T21:35:37.081Z,29.60
2023-04-10T21:38:28.892Z,23.13
2023-04-10T21:41:17.622Z,27.42
2023-04-10T21:44:08.933Z,26.98
2023-04-10T21:46:57.712Z,27.75
2023-04-10T21:49:46.424Z,27.23
2023-04-10T21:52:35.139Z,26.55
2023-04-10T21:55:24.014Z,23.73
2023-04-10T21:58:12.780Z,25.27
2023-04-10T22:01:03.454Z,27.67
2023-04-10T22:03:53.518Z,24.70
2023-04-10T22:06:42.318Z,30.10
2023-04-10T22:09:31.155Z,24.10
2023-04-10T22:12:19.940Z,22.13
2023-04-10T22:15:09.818Z,25.77
2023-04-10T22:17:59.981Z,23.48
2023-04-10T22:20:49.370Z,26.60
2023-04-10T22:23:38.055Z,21.35
2023-04-10T22:26:26.952Z,24.10
2023-04-10T22:29:15.727Z,21.25
2023-04-10T22:32:05.818Z,18.80
2023-04-10T22:34:55.961Z,24.77
2023-04-10T22:37:44.774Z,21.35
2023-04-10T22:40:33.632Z,22.15
2023-04-10T22:43:22.222Z,28.92
2023-04-10T22:46:11.140Z,25.77
2023-04-10T22:48:59.839Z,25.15
2023-04-10T22:51:49.870Z,24.52
2023-04-10T22:54:38.546Z,24.98
2023-04-10T22:57:28.054Z,20.15
2023-04-10T23:00:17.487Z,23.48
2023-04-10T23:03:06.350Z,19.63
2023-04-10T23:05:55.208Z,29.00
2023-04-10T23:08:45.391Z,21.55
2023-04-10T23:11:36.707Z,19.92
2023-04-10T23:14:25.323Z,22.88
2023-04-10T23:17:13.928Z,20.63
2023-04-10T23:20:02.771Z,22.35
2023-04-10T23:22:51.523Z,22.13
2023-04-10T23:25:41.548Z,23.60
2023-04-10T23:28:30.218Z,19.05
2023-04-10T23:31:18.871Z,25.27
2023-04-10T23:34:07.534Z,17.95
2023-04-10T23:36:57.148Z,21.33
2023-04-10T23:39:45.831Z,23.45
2023-04-10T23:42:35.923Z,22.75
2023-04-10T23:45:24.621Z,19.73
2023-04-10T23:48:13.241Z,22.00
2023-04-10T23:51:05.998Z,18.23
2023-04-10T23:53:54.939Z,22.25
2023-04-10T23:56:43.575Z,23.17
2023-04-10T23:59:34.021Z,21.70
